createdAt,value
2022-12-11T00:00:09.245Z,12.38
2022-12-11T00:05:30.156Z,10.35
2022-12-11T00:10:51.256Z,11.50
2022-12-11T00:16:12.538Z,11.43
2022-12-11T00:21:34.015Z,10.35
2022-12-11T00:26:54.383Z,11.85
2022-12-11T00:32:15.138Z,11.27
2022-12-11T00:37:35.945Z,14.05
2022-12-11T00:42:56.799Z,11.85
2022-12-11T00:48:18.651Z,12.25
2022-12-11T00:53:39.377Z,11.18
2022-12-11T00:59:00.159Z,14.05
2022-12-11T01:04:20.728Z,12.35
2022-12-11T01:10:00.281Z,11.40
2022-12-11T01:15:23.065Z,9.77
2022-12-11T01:20:43.688Z,12.10
2022-12-11T01:26:13.679Z,9.82
2022-12-11T01:31:34.575Z,11.90
2022-12-11T01:36:55.287Z,11.68
2022-12-11T01:42:18.917Z,9.45
2022-12-11T01:47:39.431Z,11.20
2022-12-11T01:53:00.046Z,8.95
2022-12-11T01:58:24.635Z,10.95
2022-12-11T02:09:10.471Z,13.55
2022-12-11T02:14:41.401Z,13.07
2022-12-11T02:20:21.175Z,12.32
2022-12-11T02:25:48.023Z,11.18
2022-12-11T02:31:23.258Z,11.60
2022-12-11T02:36:49.233Z,12.30
2022-12-11T02:42:11.953Z,12.63
2022-12-11T02:47:33.922Z,13.50
2022-12-11T02:52:56.977Z,12.27
2022-12-11T02:58:28.218Z,11.93
2022-12-11T03:03:49.290Z,11.48
2022-12-11T03:09:10.362Z,10.55
2022-12-11T03:14:31.322Z,9.38
2022-12-11T03:20:12.002Z,8.98
2022-12-11T03:25:44.392Z,10.55
2022-12-11T03:31:13.328Z,7.65
2022-12-11T03:36:38.315Z,8.50
2022-12-11T03:42:02.893Z,6.03
2022-12-11T03:47:27.037Z,7.97
2022-12-11T03:52:49.017Z,9.00
2022-12-11T03:58:09.655Z,8.98
2022-12-11T04:03:31.044Z,8.88
2022-12-11T04:08:52.152Z,10.45
2022-12-11T04:14:33.210Z,10.52
2022-12-11T04:20:12.410Z,11.07
2022-12-11T04:25:32.991Z,10.70
2022-12-11T04:30:53.434Z,12.32
2022-12-11T04:36:14.993Z,11.02
2022-12-11T04:41:37.094Z,11.38
2022-12-11T04:46:57.921Z,12.90
2022-12-11T04:52:18.252Z,10.15
2022-12-11T04:57:39.434Z,10.30
2022-12-11T05:02:59.967Z,10.73
2022-12-11T05:08:21.588Z,9.38
2022-12-11T05:13:43.093Z,10.93
2022-12-11T05:19:03.970Z,11.45
2022-12-11T05:24:24.812Z,12.45
2022-12-11T05:29:45.623Z,12.15
2022-12-11T05:35:06.510Z,10.43
2022-12-11T05:40:27.550Z,10.57
2022-12-11T05:45:48.374Z,11.30
2022-12-11T05:51:11.065Z,9.77
2022-12-11T05:56:34.447Z,8.45
2022-12-11T06:01:55.332Z,8.40
2022-12-11T06:07:15.671Z,9.80
2022-12-11T06:12:36.543Z,8.82
2022-12-11T06:17:56.960Z,7.45
2022-12-11T06:23:17.523Z,7.60
2022-12-11T06:28:38.394Z,8.25
2022-12-11T06:33:59.921Z,8.10
2022-12-11T06:39:20.478Z,8.00
2022-12-11T06:44:41.310Z,8.10
2022-12-11T06:50:02.358Z,7.97
2022-12-11T06:55:23.417Z,5.30
2022-12-11T07:00:43.966Z,7.07
2022-12-11T07:06:05.407Z,6.85
2022-12-11T07:11:25.827Z,7.13
2022-12-11T07:16:46.478Z,8.77
2022-12-11T07:22:07.423Z,7.75
2022-12-11T07:27:29.119Z,7.63
2022-12-11T07:32:49.765Z,7.40
2022-12-11T07:38:10.402Z,8.93
2022-12-11T07:43:32.192Z,7.00
2022-12-11T07:48:53.155Z,9.93
2022-12-11T07:54:16.853Z,9.48
2022-12-11T07:59:37.613Z,10.13
2022-12-11T08:04:58.133Z,10.32
2022-12-11T08:10:19.746Z,9.85
2022-12-11T08:15:40.281Z,8.00
2022-12-11T08:21:09.450Z,6.22
2022-12-11T08:26:34.069Z,8.90
2022-12-11T08:31:55.370Z,8.10
2022-12-11T08:37:16.150Z,8.30
2022-12-11T08:42:36.870Z,9.48
2022-12-11T08:47:59.061Z,9.95
2022-12-11T08:53:19.977Z,10.02
2022-12-11T08:58:41.033Z,10.32
2022-12-11T09:04:02.195Z,10.55
2022-12-11T09:09:22.795Z,9.10
2022-12-11T09:14:43.537Z,8.68
2022-12-11T09:20:05.519Z,12.73
2022-12-11T09:25:26.314Z,13.23
2022-12-11T09:30:47.137Z,13.13
2022-12-11T09:36:08.918Z,11.77
2022-12-11T09:41:59.513Z,11.15
2022-12-11T09:47:27.714Z,12.35
2022-12-11T09:53:10.122Z,11.45
2022-12-11T09:58:52.238Z,12.45
2022-12-11T10:04:38.154Z,12.25
2022-12-11T10:10:09.119Z,11.65
2022-12-11T10:15:43.840Z,11.13
2022-12-11T10:26:24.997Z,10.68
2022-12-11T10:31:57.816Z,11.13
2022-12-11T10:37:18.411Z,11.13
2022-12-11T10:42:45.434Z,12.15
2022-12-11T10:48:10.974Z,11.63
2022-12-11T10:53:33.392Z,13.07
2022-12-11T10:58:56.502Z,10.77
2022-12-11T11:04:37.573Z,10.85
2022-12-11T11:10:10.109Z,11.15
2022-12-11T11:15:31.298Z,10.50
2022-12-11T11:20:52.125Z,10.27
2022-12-11T11:26:13.548Z,12.05
2022-12-11T11:31:35.397Z,10.05
2022-12-11T11:36:58.663Z,10.07
2022-12-11T11:42:27.746Z,10.10
2022-12-11T11:47:58.755Z,10.45
2022-12-11T11:53:37.426Z,10.35
2022-12-11T11:59:18.900Z,11.02
2022-12-11T12:04:39.787Z,12.23
2022-12-11T12:10:16.269Z,9.93
2022-12-11T12:15:43.957Z,13.13
2022-12-11T12:21:24.492Z,11.02
2022-12-11T12:27:29.163Z,12.88
2022-12-11T12:33:15.017Z,11.65
2022-12-11T12:38:55.990Z,11.93
2022-12-11T12:44:23.633Z,12.07
2022-12-11T12:49:50.225Z,11.18
2022-12-11T12:55:14.102Z,11.23
2022-12-11T13:00:41.498Z,13.30
2022-12-11T13:06:13.532Z,10.18
2022-12-11T13:11:36.308Z,12.50
2022-12-11T13:17:21.470Z,13.30
2022-12-11T13:23:07.573Z,12.32
2022-12-11T13:28:32.970Z,14.32
2022-12-11T13:33:57.065Z,11.45
2022-12-11T13:39:22.469Z,12.68
2022-12-11T13:44:47.972Z,13.15
2022-12-11T13:50:23.939Z,11.90
2022-12-11T13:55:45.204Z,9.50
2022-12-11T14:01:11.179Z,12.43
2022-12-11T14:06:34.501Z,12.18
2022-12-11T14:11:57.619Z,11.38
2022-12-11T14:17:28.157Z,13.32
2022-12-11T14:22:48.844Z,10.80
2022-12-11T14:28:18.260Z,11.68
2022-12-11T14:33:46.954Z,10.25
2022-12-11T14:39:17.408Z,12.90
2022-12-11T14:44:51.902Z,13.20
2022-12-11T14:50:33.993Z,12.10
2022-12-11T14:55:58.128Z,12.80
2022-12-11T15:01:28.722Z,10.30
2022-12-11T15:06:51.845Z,10.98
2022-12-11T15:12:16.608Z,9.83
2022-12-11T15:17:37.462Z,9.70
2022-12-11T15:23:01.460Z,13.50
2022-12-11T15:28:34.734Z,11.70
2022-12-11T15:33:55.370Z,12.10
2022-12-11T15:39:16.170Z,12.85
2022-12-11T15:44:36.639Z,11.50
2022-12-11T15:50:07.326Z,13.93
2022-12-11T15:55:34.842Z,12.30
2022-12-11T16:00:55.909Z,11.60
2022-12-11T16:06:16.524Z,15.73
2022-12-11T16:11:37.158Z,12.93
2022-12-11T16:16:57.859Z,12.18
2022-12-11T16:22:20.958Z,12.80
2022-12-11T16:27:41.731Z,13.10
2022-12-11T16:33:10.196Z,11.82
2022-12-11T16:38:32.691Z,12.15
2022-12-11T16:43:54.058Z,13.13
2022-12-11T16:49:14.583Z,13.93
2022-12-11T16:54:35.501Z,14.40
2022-12-11T16:59:55.959Z,13.32
2022-12-11T17:05:16.807Z,14.48
2022-12-11T17:10:42.090Z,12.23
2022-12-11T17:16:16.564Z,13.48
2022-12-11T17:21:37.049Z,10.20
2022-12-11T17:26:57.574Z,12.65
2022-12-11T17:32:18.458Z,14.02
2022-12-11T17:37:38.950Z,14.35
2022-12-11T17:42:59.534Z,12.38
2022-12-11T17:48:24.296Z,11.98
2022-12-11T17:59:05.339Z,12.88
2022-12-11T18:04:26.152Z,13.15
2022-12-11T18:09:46.791Z,13.00
2022-12-11T18:15:08.053Z,12.75
2022-12-11T18:20:31.420Z,14.73
2022-12-11T18:25:52.551Z,14.40
2022-12-11T18:31:13.584Z,12.85
2022-12-11T18:36:34.722Z,15.00
2022-12-11T18:42:30.728Z,13.70
2022-12-11T18:47:37.242Z,10.65
2022-12-11T18:52:58.007Z,12.30
2022-12-11T18:58:19.340Z,12.73
2022-12-11T19:03:40.299Z,13.13
2022-12-11T19:09:01.444Z,11.63
2022-12-11T19:14:22.332Z,11.98
2022-12-11T19:19:46.018Z,13.70
2022-12-11T19:25:07.204Z,11.80
2022-12-11T19:30:28.076Z,10.27
2022-12-11T19:35:48.807Z,10.77
2022-12-11T19:41:15.349Z,13.25
2022-12-11T19:46:35.980Z,13.38
2022-12-11T19:51:56.693Z,12.75
2022-12-11T19:57:17.330Z,14.63
2022-12-11T20:02:37.639Z,13.50
2022-12-11T20:08:27.355Z,14.57
2022-12-11T20:13:45.583Z,15.63
2022-12-11T20:19:06.176Z,14.55
2022-12-11T20:24:26.634Z,16.23
2022-12-11T20:29:47.007Z,16.60
2022-12-11T20:35:08.155Z,14.18
2022-12-11T20:40:29.074Z,15.70
2022-12-11T20:45:50.127Z,13.95
2022-12-11T20:51:12.682Z,14.98
2022-12-11T20:56:33.486Z,14.88
2022-12-11T21:01:54.538Z,15.05
2022-12-11T21:07:14.931Z,17.63
2022-12-11T21:12:38.243Z,14.27
2022-12-11T21:17:59.143Z,17.90
2022-12-11T21:23:19.562Z,17.20
2022-12-11T21:28:40.073Z,14.55
2022-12-11T21:34:00.516Z,15.75
2022-12-11T21:39:21.201Z,14.55
2022-12-11T21:45:37.676Z,14.52
2022-12-11T21:50:23.418Z,15.80
2022-12-11T21:55:43.817Z,13.70
2022-12-11T22:01:06.018Z,13.73
2022-12-11T22:06:27.448Z,16.20
2022-12-11T22:11:48.148Z,16.13
2022-12-11T22:17:08.948Z,14.88
2022-12-11T22:22:29.498Z,14.30
2022-12-11T22:27:50.405Z,16.52
2022-12-11T22:33:12.248Z,16.35
2022-12-11T22:38:33.973Z,15.63
2022-12-11T22:43:55.200Z,16.30
2022-12-11T22:49:15.909Z,14.93
2022-12-11T22:54:40.927Z,16.35
2022-12-11T23:00:02.559Z,15.57
2022-12-11T23:05:23.101Z,16.42
2022-12-11T23:10:44.065Z,17.30
2022-12-11T23:16:04.727Z,18.30
2022-12-11T23:21:27.597Z,17.60
2022-12-11T23:26:48.287Z,16.73
2022-12-11T23:32:08.912Z,17.08
2022-12-11T23:37:29.658Z,17.58
2022-12-11T23:42:49.914Z,15.98
2022-12-11T23:48:13.005Z,16.92
2022-12-11T23:53:33.865Z,16.67
2022-12-11T23:58:54.626Z,14.70
